createdAt,value
2018-12-15T00:01:28.285Z,67.40
2018-12-15T00:03:56.802Z,67.70
2018-12-15T00:06:25.269Z,66.60
2018-12-15T00:08:54.028Z,63.80
2018-12-15T00:11:22.893Z,64.60
2018-12-15T00:13:51.407Z,65.20
2018-12-15T00:16:20.543Z,66.40
2018-12-15T00:18:49.177Z,67.10
2018-12-15T00:21:17.603Z,65.40
2018-12-15T00:23:46.070Z,65.80
2018-12-15T00:26:14.774Z,66.10
2018-12-15T00:28:43.288Z,65.80
2018-12-15T00:31:11.630Z,66.60
2018-12-15T00:33:40.149Z,65.80
2018-12-15T00:36:08.533Z,66.50
2018-12-15T00:38:36.924Z,67.60
2018-12-15T00:41:05.660Z,66.60
2018-12-15T00:43:34.178Z,67.10
2018-12-15T00:46:02.493Z,67.70
2018-12-15T00:48:31.019Z,68.20
2018-12-15T00:50:59.505Z,68.20
2018-12-15T00:53:27.809Z,67.80
2018-12-15T00:55:56.390Z,67.10
2018-12-15T00:58:24.802Z,66.90
2018-12-15T01:00:53.333Z,67.70
2018-12-15T01:03:21.726Z,66.70
2018-12-15T01:05:50.126Z,65.50
2018-12-15T01:08:18.847Z,67.20
2018-12-15T01:10:47.207Z,66.80
2018-12-15T01:13:15.661Z,67.60
2018-12-15T01:15:45.411Z,66.90
2018-12-15T01:18:14.682Z,66.10
2018-12-15T01:20:43.105Z,65.00
2018-12-15T01:23:11.390Z,64.60
2018-12-15T01:25:39.781Z,65.70
2018-12-15T01:28:08.545Z,63.40
2018-12-15T01:30:36.870Z,65.70
2018-12-15T01:33:05.235Z,65.30
2018-12-15T01:35:33.916Z,65.40
2018-12-15T01:38:02.382Z,66.40
2018-12-15T01:40:30.722Z,66.10
2018-12-15T01:42:59.313Z,66.60
2018-12-15T01:45:27.690Z,65.80
2018-12-15T01:47:56.302Z,65.40
2018-12-15T01:50:24.750Z,66.00
2018-12-15T01:52:53.319Z,66.10
2018-12-15T01:55:21.887Z,65.50
2018-12-15T01:57:50.402Z,65.00
2018-12-15T02:00:19.441Z,65.40
2018-12-15T02:02:47.778Z,65.50
2018-12-15T02:05:19.679Z,64.30
2018-12-15T02:07:48.313Z,65.40
2018-12-15T02:10:16.954Z,65.10
2018-12-15T02:12:45.355Z,66.60
2018-12-15T02:15:13.714Z,68.00
2018-12-15T02:17:42.605Z,67.10
2018-12-15T02:20:11.133Z,66.20
2018-12-15T02:25:07.788Z,67.10
2018-12-15T02:27:36.241Z,67.30
2018-12-15T02:30:04.879Z,66.40
2018-12-15T02:32:33.374Z,65.80
2018-12-15T02:35:02.044Z,67.70
2018-12-15T02:37:34.668Z,66.80
2018-12-15T02:40:03.408Z,66.60
2018-12-15T02:42:31.797Z,67.70
2018-12-15T02:45:00.345Z,67.10
2018-12-15T02:47:29.081Z,67.10
2018-12-15T02:49:57.587Z,66.90
2018-12-15T02:52:26.025Z,67.70
2018-12-15T02:54:54.850Z,67.80
2018-12-15T02:57:23.303Z,68.00
2018-12-15T02:59:51.835Z,67.80
2018-12-15T03:02:20.471Z,67.90
2018-12-15T03:04:49.083Z,68.30
2018-12-15T03:07:17.489Z,68.30
2018-12-15T03:09:44.825Z,67.40
2018-12-15T03:12:13.293Z,67.90
2018-12-15T03:14:41.804Z,67.80
2018-12-15T03:17:10.391Z,68.00
2018-12-15T03:19:37.966Z,68.60
2018-12-15T03:22:06.430Z,67.80
2018-12-15T03:24:38.282Z,68.60
2018-12-15T03:27:06.891Z,67.00
2018-12-15T03:29:35.272Z,68.10
2018-12-15T03:32:03.760Z,67.80
2018-12-15T03:34:32.083Z,68.60
2018-12-15T03:37:00.677Z,68.60
2018-12-15T03:39:29.236Z,68.60
2018-12-15T03:41:57.729Z,68.30
2018-12-15T03:44:26.062Z,68.50
2018-12-15T03:46:54.585Z,68.20
2018-12-15T03:49:23.058Z,68.30
2018-12-15T03:51:51.930Z,68.60
2018-12-15T03:54:20.025Z,68.60
2018-12-15T03:56:48.529Z,68.20
2018-12-15T03:59:16.967Z,68.00
2018-12-15T04:01:45.461Z,68.60
2018-12-15T04:04:13.886Z,67.70
2018-12-15T04:06:42.555Z,67.70
2018-12-15T04:09:11.054Z,68.40
2018-12-15T04:11:39.463Z,68.30
2018-12-15T04:14:07.894Z,68.00
2018-12-15T04:16:36.048Z,67.80
2018-12-15T04:19:04.352Z,68.20
2018-12-15T04:21:32.717Z,66.90
2018-12-15T04:24:01.302Z,68.00
2018-12-15T04:26:29.703Z,68.10
2018-12-15T04:28:58.042Z,67.70
2018-12-15T04:31:26.409Z,67.50
2018-12-15T04:33:54.773Z,67.70
2018-12-15T04:36:23.109Z,67.70
2018-12-15T04:38:52.129Z,68.30
2018-12-15T04:41:20.480Z,68.50
2018-12-15T04:43:48.932Z,67.40
2018-12-15T04:46:17.662Z,67.80
2018-12-15T04:48:46.212Z,68.60
2018-12-15T04:51:14.621Z,68.20
2018-12-15T04:56:10.601Z,68.40
2018-12-15T04:58:39.205Z,68.10
2018-12-15T05:01:07.573Z,68.00
2018-12-15T05:03:35.906Z,68.90
2018-12-15T05:06:04.546Z,68.50
2018-12-15T05:08:32.945Z,68.70
2018-12-15T05:11:01.425Z,68.30
2018-12-15T05:13:29.881Z,68.50
2018-12-15T05:15:58.420Z,68.60
2018-12-15T05:20:54.417Z,68.40
2018-12-15T05:23:22.793Z,67.90
2018-12-15T05:25:51.787Z,68.70
2018-12-15T05:28:20.809Z,68.30
2018-12-15T05:30:49.570Z,68.30
2018-12-15T05:33:17.296Z,68.90
2018-12-15T05:35:45.722Z,68.40
2018-12-15T05:38:14.252Z,68.80
2018-12-15T05:40:42.755Z,68.20
2018-12-15T05:43:11.102Z,68.70
2018-12-15T05:45:39.527Z,68.70
2018-12-15T05:48:08.750Z,68.80
2018-12-15T05:50:37.477Z,68.40
2018-12-15T05:53:06.117Z,68.80
2018-12-15T05:55:35.075Z,68.10
2018-12-15T05:58:03.565Z,68.50
2018-12-15T06:00:32.182Z,68.60
2018-12-15T06:03:00.952Z,67.80
2018-12-15T06:05:29.494Z,69.30
2018-12-15T06:07:58.322Z,67.40
2018-12-15T06:10:26.915Z,67.60
2018-12-15T06:12:54.345Z,68.10
2018-12-15T06:15:22.823Z,68.20
2018-12-15T06:17:51.385Z,68.10
2018-12-15T06:20:19.853Z,68.50
2018-12-15T06:22:47.420Z,67.90
2018-12-15T06:25:16.004Z,67.70
2018-12-15T06:27:44.425Z,66.80
2018-12-15T06:30:12.473Z,67.90
2018-12-15T06:32:40.977Z,66.40
2018-12-15T06:35:09.345Z,66.80
2018-12-15T06:40:12.289Z,66.70
2018-12-15T06:42:40.678Z,65.90
2018-12-15T06:45:09.190Z,67.30
2018-12-15T06:47:37.974Z,65.30
2018-12-15T06:50:06.733Z,64.80
2018-12-15T06:55:05.538Z,65.10
2018-12-15T06:57:33.963Z,65.70
2018-12-15T07:00:02.582Z,65.30
2018-12-15T07:02:30.380Z,65.00
2018-12-15T07:04:57.831Z,63.80
2018-12-15T07:07:27.005Z,63.90
2018-12-15T07:09:55.538Z,63.90
2018-12-15T07:12:24.745Z,65.10
2018-12-15T07:14:53.500Z,64.70
2018-12-15T07:17:21.898Z,64.50
2018-12-15T07:20:00.490Z,62.50
2018-12-15T07:22:29.198Z,63.10
2018-12-15T07:24:58.198Z,63.40
2018-12-15T07:27:27.221Z,63.70
2018-12-15T07:29:56.141Z,64.60
2018-12-15T07:32:24.842Z,64.30
2018-12-15T07:34:53.611Z,61.40
2018-12-15T07:37:22.202Z,62.60
2018-12-15T07:39:52.334Z,60.40
2018-12-15T07:42:21.422Z,60.40
2018-12-15T07:44:50.955Z,59.70
2018-12-15T07:47:19.855Z,61.40
2018-12-15T07:49:48.574Z,60.50
2018-12-15T07:52:17.181Z,62.60
2018-12-15T07:54:46.285Z,59.60
2018-12-15T07:57:16.051Z,58.90
2018-12-15T07:59:44.822Z,59.30
2018-12-15T08:02:13.574Z,60.70
2018-12-15T08:04:44.196Z,60.20
2018-12-15T08:07:14.237Z,58.80
2018-12-15T08:09:43.296Z,60.60
2018-12-15T08:12:17.640Z,60.30
2018-12-15T08:14:46.383Z,58.90
2018-12-15T08:17:15.534Z,62.50
2018-12-15T08:19:44.593Z,61.60
2018-12-15T08:22:13.195Z,61.30
2018-12-15T08:24:41.833Z,62.40
2018-12-15T08:27:10.376Z,62.20
2018-12-15T08:29:38.880Z,61.40
2018-12-15T08:32:07.457Z,61.60
2018-12-15T08:34:38.288Z,62.50
2018-12-15T08:37:10.104Z,62.00
2018-12-15T08:39:38.857Z,62.30
2018-12-15T08:42:07.228Z,60.50
2018-12-15T08:44:35.987Z,58.50
2018-12-15T08:47:05.706Z,57.80
2018-12-15T08:49:34.295Z,61.30
2018-12-15T08:52:02.678Z,61.90
2018-12-15T08:54:36.322Z,61.90
2018-12-15T08:59:46.797Z,61.50
2018-12-15T09:02:17.043Z,60.00
2018-12-15T09:04:45.574Z,58.80
2018-12-15T09:07:27.927Z,58.10
2018-12-15T09:09:56.362Z,59.50
2018-12-15T09:12:36.115Z,57.90
2018-12-15T09:15:05.347Z,57.20
2018-12-15T09:17:34.805Z,58.50
2018-12-15T09:22:31.726Z,60.70
2018-12-15T09:25:00.310Z,58.20
2018-12-15T09:27:28.837Z,59.20
2018-12-15T09:30:05.850Z,60.30
2018-12-15T09:32:34.291Z,57.50
2018-12-15T09:35:02.717Z,57.30
2018-12-15T09:39:59.697Z,58.00
2018-12-15T09:42:28.168Z,57.10
2018-12-15T09:44:57.055Z,57.30
2018-12-15T09:47:25.577Z,58.80
2018-12-15T09:49:54.129Z,59.10
2018-12-15T09:52:22.573Z,58.10
2018-12-15T09:54:51.745Z,57.20
2018-12-15T09:57:20.125Z,57.60
2018-12-15T10:02:43.682Z,58.00
2018-12-15T10:05:12.903Z,57.70
2018-12-15T10:07:41.317Z,58.00
2018-12-15T10:10:09.887Z,56.20
2018-12-15T10:12:38.430Z,56.60
2018-12-15T10:15:06.950Z,57.50
2018-12-15T10:17:35.778Z,57.70
2018-12-15T10:20:04.710Z,59.80
2018-12-15T10:22:33.373Z,58.30
2018-12-15T10:25:01.815Z,58.00
2018-12-15T10:27:30.282Z,57.80
2018-12-15T10:30:04.341Z,59.80
2018-12-15T10:32:38.160Z,59.50
2018-12-15T10:35:07.263Z,57.10
2018-12-15T10:37:35.624Z,57.50
2018-12-15T10:40:04.358Z,56.60
2018-12-15T10:42:33.177Z,57.30
2018-12-15T10:45:01.942Z,58.50
2018-12-15T10:47:31.263Z,56.10
2018-12-15T10:50:00.155Z,55.20
2018-12-15T10:52:28.503Z,57.00
2018-12-15T10:54:57.268Z,56.10
2018-12-15T10:57:25.954Z,57.70
2018-12-15T10:59:54.658Z,56.20
2018-12-15T11:02:23.886Z,57.00
2018-12-15T11:04:52.684Z,55.40
2018-12-15T11:07:22.363Z,57.00
2018-12-15T11:09:51.187Z,56.60
2018-12-15T11:12:19.958Z,56.10
2018-12-15T11:14:48.438Z,55.10
2018-12-15T11:17:16.893Z,56.90
2018-12-15T11:19:45.336Z,57.40
2018-12-15T11:22:13.885Z,54.90
2018-12-15T11:24:42.692Z,57.40
2018-12-15T11:27:11.375Z,57.10
2018-12-15T11:29:40.228Z,57.80
2018-12-15T11:32:08.777Z,57.50
2018-12-15T11:34:37.311Z,56.10
2018-12-15T11:37:06.528Z,58.50
2018-12-15T11:39:35.133Z,57.20
2018-12-15T11:42:04.036Z,54.50
2018-12-15T11:44:32.374Z,54.90
2018-12-15T11:47:01.386Z,56.00
2018-12-15T11:49:30.063Z,56.70
2018-12-15T11:51:58.590Z,58.00
2018-12-15T11:54:27.528Z,57.30
2018-12-15T11:56:56.283Z,54.00
2018-12-15T11:59:25.879Z,55.90
2018-12-15T12:01:54.200Z,56.30
2018-12-15T12:04:22.787Z,55.30
2018-12-15T12:06:51.460Z,54.90
2018-12-15T12:09:19.964Z,55.40
2018-12-15T12:11:48.513Z,54.90
2018-12-15T12:14:17.007Z,55.90
2018-12-15T12:16:45.565Z,56.30
2018-12-15T12:19:14.016Z,56.60
2018-12-15T12:21:42.417Z,54.30
2018-12-15T12:24:10.864Z,55.60
2018-12-15T12:26:39.293Z,56.10
2018-12-15T12:29:07.874Z,56.40
2018-12-15T12:31:36.357Z,54.90
2018-12-15T12:34:05.006Z,57.90
2018-12-15T12:36:33.310Z,56.40
2018-12-15T12:39:01.827Z,55.60
2018-12-15T12:41:31.217Z,56.80
2018-12-15T12:43:59.844Z,55.00
2018-12-15T12:46:28.482Z,55.20
2018-12-15T12:48:57.287Z,55.80
2018-12-15T12:51:26.749Z,56.80
2018-12-15T12:53:55.488Z,56.30
2018-12-15T12:56:23.900Z,56.40
2018-12-15T12:58:52.734Z,55.50
2018-12-15T13:01:21.252Z,57.00
2018-12-15T13:03:49.921Z,54.90
2018-12-15T13:06:18.934Z,55.40
2018-12-15T13:08:47.428Z,56.80
2018-12-15T13:11:15.998Z,54.90
2018-12-15T13:13:45.724Z,54.80
2018-12-15T13:16:14.981Z,55.70
2018-12-15T13:18:44.523Z,56.80
2018-12-15T13:21:14.265Z,53.20
2018-12-15T13:23:42.997Z,55.50
2018-12-15T13:26:12.682Z,56.50
2018-12-15T13:28:41.227Z,55.00
2018-12-15T13:31:10.017Z,56.10
2018-12-15T13:33:38.542Z,54.70
2018-12-15T13:36:14.332Z,53.90
2018-12-15T13:38:42.791Z,55.70
2018-12-15T13:41:11.498Z,55.70
2018-12-15T13:43:40.173Z,54.40
2018-12-15T13:46:09.096Z,55.70
2018-12-15T13:48:37.801Z,56.60
2018-12-15T13:51:06.695Z,56.50
2018-12-15T13:53:35.595Z,55.40
2018-12-15T13:56:04.885Z,53.50
2018-12-15T13:58:34.680Z,53.90
2018-12-15T14:01:03.410Z,53.90
2018-12-15T14:03:32.455Z,53.20
2018-12-15T14:06:01.694Z,54.80
2018-12-15T14:08:30.233Z,55.90
2018-12-15T14:10:58.936Z,55.00
2018-12-15T14:13:27.414Z,55.20
2018-12-15T14:15:56.217Z,54.30
2018-12-15T14:18:24.717Z,55.40
2018-12-15T14:20:53.370Z,56.20
2018-12-15T14:23:22.658Z,56.10
2018-12-15T14:25:51.218Z,54.50
2018-12-15T14:31:14.019Z,54.40
2018-12-15T14:33:42.632Z,55.00
2018-12-15T14:36:11.577Z,56.20
2018-12-15T14:38:40.340Z,56.10
2018-12-15T14:41:09.122Z,55.00
2018-12-15T14:43:37.709Z,54.70
2018-12-15T14:46:06.882Z,55.70
2018-12-15T14:48:35.874Z,56.20
2018-12-15T14:51:04.518Z,55.80
2018-12-15T14:53:37.911Z,55.40
2018-12-15T14:56:06.631Z,56.70
2018-12-15T14:58:35.190Z,56.30
2018-12-15T15:01:03.738Z,55.80
2018-12-15T15:03:32.253Z,56.50
2018-12-15T15:06:00.833Z,55.70
2018-12-15T15:08:29.400Z,54.90
2018-12-15T15:10:57.775Z,56.20
2018-12-15T15:13:26.792Z,56.30
2018-12-15T15:15:56.204Z,56.30
2018-12-15T15:18:24.880Z,56.30
2018-12-15T15:20:56.412Z,57.00
2018-12-15T15:23:24.855Z,55.60
2018-12-15T15:25:54.316Z,55.90
2018-12-15T15:28:23.716Z,55.40
2018-12-15T15:30:52.864Z,55.20
2018-12-15T15:33:22.204Z,55.60
2018-12-15T15:35:50.939Z,55.90
2018-12-15T15:38:19.866Z,55.60
2018-12-15T15:40:48.390Z,56.70
2018-12-15T15:43:17.365Z,56.40
2018-12-15T15:45:45.802Z,56.70
2018-12-15T15:48:14.381Z,56.00
2018-12-15T15:50:42.958Z,56.80
2018-12-15T15:53:12.789Z,55.80
2018-12-15T15:55:42.073Z,56.20
2018-12-15T15:58:10.905Z,55.90
2018-12-15T16:00:40.885Z,56.20
2018-12-15T16:03:09.479Z,56.60
2018-12-15T16:05:37.978Z,56.70
2018-12-15T16:08:06.659Z,55.90
2018-12-15T16:10:36.091Z,55.80
2018-12-15T16:13:04.693Z,55.40
2018-12-15T16:18:28.612Z,56.80
2018-12-15T16:20:59.678Z,57.10
2018-12-15T16:23:29.377Z,56.50
2018-12-15T16:25:58.954Z,56.50
2018-12-15T16:28:27.798Z,56.70
2018-12-15T16:30:56.938Z,57.30
2018-12-15T16:33:25.811Z,57.20
2018-12-15T16:35:54.295Z,56.70
2018-12-15T16:38:23.442Z,56.80
2018-12-15T16:40:51.427Z,57.00
2018-12-15T16:43:20.469Z,57.10
2018-12-15T16:45:49.368Z,57.50
2018-12-15T16:48:18.098Z,57.60
2018-12-15T16:50:50.188Z,57.90
2018-12-15T16:53:33.240Z,57.50
2018-12-15T17:02:27.240Z,58.10
2018-12-15T17:07:56.707Z,57.60
2018-12-15T17:10:26.463Z,58.10
2018-12-15T17:12:55.432Z,57.70
2018-12-15T17:15:24.800Z,58.10
2018-12-15T17:17:53.373Z,58.20
2018-12-15T17:20:23.449Z,58.60
2018-12-15T17:26:47.406Z,58.20
2018-12-15T17:29:15.786Z,58.40
2018-12-15T17:31:44.710Z,58.80
2018-12-15T17:34:13.190Z,58.60
2018-12-15T17:36:41.638Z,59.20
2018-12-15T17:39:10.670Z,58.00
2018-12-15T17:41:39.504Z,58.30
2018-12-15T17:44:08.039Z,58.60
2018-12-15T17:46:36.670Z,58.30
2018-12-15T17:49:05.355Z,57.70
2018-12-15T17:51:35.221Z,58.40
2018-12-15T17:54:03.804Z,58.10
2018-12-15T17:56:32.664Z,58.50
2018-12-15T17:59:01.014Z,58.70
2018-12-15T18:01:29.793Z,58.40
2018-12-15T18:03:58.371Z,58.10
2018-12-15T18:06:27.492Z,57.90
2018-12-15T18:08:56.075Z,59.30
2018-12-15T18:11:24.584Z,58.40
2018-12-15T18:13:53.105Z,58.10
2018-12-15T18:16:21.698Z,58.80
2018-12-15T18:18:50.865Z,58.60
2018-12-15T18:21:19.837Z,59.20
2018-12-15T18:23:48.910Z,58.70
2018-12-15T18:26:17.712Z,58.50
2018-12-15T18:28:46.464Z,58.30
2018-12-15T18:31:15.873Z,58.40
2018-12-15T18:33:44.779Z,59.20
2018-12-15T18:36:13.679Z,58.70
2018-12-15T18:38:42.321Z,58.50
2018-12-15T18:41:11.254Z,58.70
2018-12-15T18:43:39.742Z,58.50
2018-12-15T18:46:08.428Z,59.20
2018-12-15T18:48:36.885Z,58.80
2018-12-15T18:51:05.627Z,59.10
2018-12-15T18:53:34.151Z,58.50
2018-12-15T18:56:02.859Z,59.00
2018-12-15T18:58:31.437Z,59.20
2018-12-15T19:01:00.030Z,59.20
2018-12-15T19:03:28.740Z,59.60
2018-12-15T19:05:58.037Z,58.60
2018-12-15T19:08:26.728Z,58.50
2018-12-15T19:10:55.329Z,58.50
2018-12-15T19:13:24.060Z,59.40
2018-12-15T19:15:52.945Z,58.30
2018-12-15T19:18:21.701Z,58.80
2018-12-15T19:20:50.156Z,58.60
2018-12-15T19:23:18.723Z,59.00
2018-12-15T19:25:47.484Z,59.30
2018-12-15T19:28:16.166Z,58.60
2018-12-15T19:30:44.755Z,58.20
2018-12-15T19:33:13.548Z,59.10
2018-12-15T19:38:35.102Z,58.50
2018-12-15T19:41:03.925Z,59.50
2018-12-15T19:43:32.540Z,57.70
2018-12-15T19:46:01.342Z,58.50
2018-12-15T19:48:31.093Z,58.40
2018-12-15T19:50:59.886Z,59.00
2018-12-15T19:53:28.407Z,58.90
2018-12-15T19:55:57.357Z,58.60
2018-12-15T19:58:26.047Z,57.70
2018-12-15T20:00:55.183Z,58.70
2018-12-15T20:03:24.528Z,58.50
2018-12-15T20:05:53.254Z,58.10
2018-12-15T20:08:22.055Z,59.00
2018-12-15T20:10:50.653Z,58.10
2018-12-15T20:13:19.194Z,58.20
2018-12-15T20:15:48.152Z,58.80
2018-12-15T20:18:16.848Z,57.80
2018-12-15T20:20:45.272Z,58.30
2018-12-15T20:23:14.786Z,57.50
2018-12-15T20:25:43.285Z,58.50
2018-12-15T20:28:11.805Z,57.90
2018-12-15T20:30:40.484Z,58.80
2018-12-15T20:33:09.015Z,57.80
2018-12-15T20:35:38.858Z,58.20
2018-12-15T20:38:08.193Z,58.70
2018-12-15T20:40:36.671Z,58.50
2018-12-15T20:43:05.545Z,58.30
2018-12-15T20:45:34.128Z,58.00
2018-12-15T20:48:02.502Z,58.20
2018-12-15T20:50:31.053Z,57.20
2018-12-15T20:52:59.597Z,57.80
2018-12-15T20:55:28.142Z,57.60
2018-12-15T20:57:56.807Z,57.60
2018-12-15T21:00:25.649Z,57.20
2018-12-15T21:02:54.098Z,58.10
2018-12-15T21:05:22.741Z,57.30
2018-12-15T21:07:51.406Z,58.10
2018-12-15T21:10:19.782Z,57.50
2018-12-15T21:12:48.410Z,58.20
2018-12-15T21:15:22.892Z,57.30
2018-12-15T21:17:51.444Z,58.10
2018-12-15T21:20:19.983Z,58.10
2018-12-15T21:22:48.578Z,56.80
2018-12-15T21:25:17.098Z,58.20
2018-12-15T21:27:45.670Z,58.30
2018-12-15T21:30:21.901Z,57.60
2018-12-15T21:32:50.477Z,58.00
2018-12-15T21:35:19.954Z,58.50
2018-12-15T21:37:48.485Z,58.50
2018-12-15T21:40:16.892Z,58.70
2018-12-15T21:42:46.373Z,59.50
2018-12-15T21:45:15.069Z,59.20
2018-12-15T21:47:43.568Z,60.90
2018-12-15T21:50:12.318Z,60.00
2018-12-15T21:52:40.909Z,60.60
2018-12-15T21:55:09.528Z,60.40
2018-12-15T21:57:37.889Z,61.50
2018-12-15T22:00:07.729Z,61.60
2018-12-15T22:02:36.621Z,61.70
2018-12-15T22:05:05.889Z,62.40
2018-12-15T22:07:34.354Z,62.50
2018-12-15T22:10:02.802Z,63.60
2018-12-15T22:12:31.459Z,63.00
2018-12-15T22:15:00.023Z,63.50
2018-12-15T22:17:28.674Z,63.80
2018-12-15T22:19:58.256Z,64.00
2018-12-15T22:22:26.931Z,64.20
2018-12-15T22:24:56.169Z,64.80
2018-12-15T22:27:24.997Z,65.00
2018-12-15T22:29:53.481Z,65.70
2018-12-15T22:32:22.138Z,65.40
2018-12-15T22:34:50.736Z,66.00
2018-12-15T22:37:19.331Z,66.20
2018-12-15T22:39:48.000Z,66.30
2018-12-15T22:42:16.543Z,67.00
2018-12-15T22:44:45.035Z,67.00
2018-12-15T22:47:14.331Z,67.10
2018-12-15T22:49:43.189Z,67.30
2018-12-15T22:52:12.737Z,67.60
2018-12-15T22:54:41.367Z,67.10
2018-12-15T22:57:10.262Z,68.10
2018-12-15T22:59:39.108Z,68.30
2018-12-15T23:02:07.635Z,68.50
2018-12-15T23:04:36.436Z,68.90
2018-12-15T23:07:05.177Z,68.90
2018-12-15T23:09:33.595Z,69.30
2018-12-15T23:12:02.303Z,69.80
2018-12-15T23:14:30.878Z,69.30
2018-12-15T23:16:59.269Z,69.80
2018-12-15T23:19:27.850Z,70.10
2018-12-15T23:21:56.517Z,70.00
2018-12-15T23:24:25.017Z,70.50
2018-12-15T23:26:52.488Z,70.90
2018-12-15T23:29:20.976Z,71.10
2018-12-15T23:31:49.417Z,71.20
2018-12-15T23:34:17.940Z,71.20
2018-12-15T23:39:14.145Z,71.50
2018-12-15T23:41:42.504Z,70.90
2018-12-15T23:44:10.959Z,70.80
2018-12-15T23:46:39.463Z,70.30
2018-12-15T23:49:07.852Z,70.50
2018-12-15T23:51:36.334Z,71.10
2018-12-15T23:54:05.025Z,70.30
2018-12-15T23:56:33.616Z,71.10
2018-12-15T23:59:02.130Z,70.60
